Philadelphia, Pennsylvania
Current Conditions -  °F | °C
As of 3:54 PM on Monday 24 Nov 2014 (Local Time) from KPHL Reporting Station
Few Clouds Few Clouds  
Wind Chill: 70°   Ceiling: Unl
Heat Index: 70°   Visibility: 10mi
Dew Point: 55°   Wind: 22mph
Humidity: 59%   Direction: 210°SSW
Pressure: 29.64"   Gusts: 32mph
Location:  39.95°N, 75.16°W
Report Text: KPHL 242054Z 21019G28KT 10SM FEW035 FEW100 21/13 A2964 RMK AO2 PK WND 21030/2006 SLP037 T02110128 53005
Loading
Personal Weather Stations






























Interactive Weather Map New forecast layout! Learn more

10-Day Weather Forecast

Advertisements
Track Severe Weather on mobile